createdAt,value
2019-02-22T00:04:50.667Z,102463.62
2019-02-22T00:09:53.351Z,102479.00
2019-02-22T00:14:56.023Z,102476.44
2019-02-22T00:19:58.721Z,102481.63
2019-02-22T00:25:01.424Z,102487.25
2019-02-22T00:30:04.330Z,102495.60
2019-02-22T00:35:07.356Z,102511.33
2019-02-22T00:40:10.082Z,102520.94
2019-02-22T00:45:12.785Z,102527.92
2019-02-22T00:50:15.483Z,102538.44
2019-02-22T00:55:18.206Z,102545.05
2019-02-22T01:00:20.877Z,102546.30
2019-02-22T01:05:23.575Z,102561.20
2019-02-22T01:10:31.100Z,102575.63
2019-02-22T01:15:30.852Z,102579.55
2019-02-22T01:20:33.553Z,102584.88
2019-02-22T01:25:36.267Z,102587.47
2019-02-22T01:30:38.927Z,102583.08
2019-02-22T01:35:41.620Z,102590.47
2019-02-22T01:40:44.349Z,102597.02
2019-02-22T01:45:47.087Z,102602.33
2019-02-22T01:50:49.781Z,102606.70
2019-02-22T01:55:52.471Z,102593.94
2019-02-22T02:00:55.162Z,102600.92
2019-02-22T02:05:57.833Z,102612.68
2019-02-22T02:11:00.536Z,102620.55
2019-02-22T02:16:03.232Z,102611.41
2019-02-22T02:21:05.922Z,102631.51
2019-02-22T02:26:08.602Z,102624.55
2019-02-22T02:31:11.266Z,102628.11
2019-02-22T02:36:13.946Z,102635.52
2019-02-22T02:41:16.615Z,102634.66
2019-02-22T02:46:19.299Z,102642.02
2019-02-22T02:51:21.993Z,102641.62
2019-02-22T02:56:24.672Z,102653.86
2019-02-22T03:01:27.351Z,102650.83
2019-02-22T03:06:52.238Z,102666.48
2019-02-22T03:11:54.905Z,102661.66
2019-02-22T03:16:57.608Z,102673.11
2019-02-22T03:22:00.306Z,102663.93
2019-02-22T03:27:03.028Z,102680.97
2019-02-22T03:32:05.746Z,102680.05
2019-02-22T03:37:08.432Z,102689.28
2019-02-22T03:42:11.114Z,102671.80
2019-02-22T03:47:13.805Z,102694.93
2019-02-22T03:52:35.477Z,102706.27
2019-02-22T03:57:38.205Z,102693.59
2019-02-22T04:02:40.919Z,102718.53
2019-02-22T04:07:43.593Z,102736.00
2019-02-22T04:12:46.314Z,102742.11
2019-02-22T04:17:49.033Z,102756.97
2019-02-22T04:22:52.152Z,102747.36
2019-02-22T04:27:54.894Z,102750.41
2019-02-22T04:32:57.585Z,102755.70
2019-02-22T04:38:00.291Z,102755.28
2019-02-22T04:43:03.148Z,102757.44
2019-02-22T04:48:05.880Z,102767.42
2019-02-22T04:53:08.638Z,102767.84
2019-02-22T04:58:14.303Z,102777.05
2019-02-22T05:03:19.238Z,102780.57
2019-02-22T05:08:23.359Z,102782.75
2019-02-22T05:13:26.208Z,102788.46
2019-02-22T05:18:28.992Z,102790.70
2019-02-22T05:23:33.433Z,102785.44
2019-02-22T05:28:37.180Z,102801.60
2019-02-22T05:33:41.172Z,102797.64
2019-02-22T05:38:45.564Z,102814.70
2019-02-22T05:43:50.149Z,102819.56
2019-02-22T05:48:54.651Z,102821.72
2019-02-22T05:53:58.469Z,102833.16
2019-02-22T05:59:02.438Z,102830.53
2019-02-22T06:04:06.861Z,102832.28
2019-02-22T06:09:11.196Z,102837.52
2019-02-22T06:14:15.522Z,102848.47
2019-02-22T06:19:19.405Z,102855.91
2019-02-22T06:24:23.490Z,102854.59
2019-02-22T06:29:28.223Z,102872.95
2019-02-22T06:34:32.344Z,102880.38
2019-02-22T06:39:35.866Z,102887.39
2019-02-22T06:44:39.888Z,102900.48
2019-02-22T06:49:44.576Z,102911.42
2019-02-22T06:54:48.859Z,102925.41
2019-02-22T06:59:54.431Z,102927.19
2019-02-22T07:04:58.606Z,102930.23
2019-02-22T07:10:02.908Z,102935.06
2019-02-22T07:15:06.952Z,102950.78
2019-02-22T07:20:11.320Z,102945.11
2019-02-22T07:25:14.803Z,102970.46
2019-02-22T07:30:18.459Z,102977.45
2019-02-22T07:35:22.070Z,102985.25
2019-02-22T07:40:26.188Z,102993.08
2019-02-22T07:45:29.974Z,103001.78
2019-02-22T07:50:33.842Z,103007.94
2019-02-22T07:55:37.559Z,103022.41
2019-02-22T08:00:41.204Z,103036.42
2019-02-22T08:05:44.660Z,103039.03
2019-02-22T08:10:48.339Z,103048.22
2019-02-22T08:15:51.659Z,103053.91
2019-02-22T08:20:55.547Z,103070.08
2019-02-22T08:25:58.943Z,103080.56
2019-02-22T08:31:02.352Z,103084.50
2019-02-22T08:36:07.635Z,103104.16
2019-02-22T08:41:11.222Z,103108.95
2019-02-22T08:46:15.518Z,103114.23
2019-02-22T08:51:19.254Z,103123.42
2019-02-22T08:56:23.150Z,103111.20
2019-02-22T09:01:27.209Z,103115.56
2019-02-22T09:06:30.794Z,103120.79
2019-02-22T09:11:34.891Z,103126.48
2019-02-22T09:16:38.879Z,103136.52
2019-02-22T09:21:42.394Z,103148.81
2019-02-22T09:26:46.101Z,103150.98
2019-02-22T09:31:49.851Z,103161.50
2019-02-22T09:36:54.130Z,103172.42
2019-02-22T09:41:58.617Z,103174.61
2019-02-22T09:47:02.091Z,103179.44
2019-02-22T09:52:06.094Z,103184.20
2019-02-22T09:57:09.801Z,103197.38
2019-02-22T10:02:13.669Z,103200.88
2019-02-22T10:07:17.139Z,103206.13
2019-02-22T10:12:21.504Z,103214.87
2019-02-22T10:17:25.430Z,103215.72
2019-02-22T10:22:29.532Z,103223.17
2019-02-22T10:27:32.902Z,103234.97
2019-02-22T10:32:36.720Z,103245.00
2019-02-22T10:37:40.044Z,103252.45
2019-02-22T10:42:42.803Z,103258.94
2019-02-22T10:47:45.695Z,103253.23
2019-02-22T10:52:49.624Z,103264.98
2019-02-22T10:57:53.914Z,103272.05
2019-02-22T11:02:57.242Z,103283.02
2019-02-22T11:08:01.234Z,103283.81
2019-02-22T11:13:05.358Z,103287.36
2019-02-22T11:18:09.553Z,103283.02
2019-02-22T11:23:12.996Z,103288.30
2019-02-22T11:28:18.675Z,103285.63
2019-02-22T11:33:22.092Z,103290.03
2019-02-22T11:38:26.175Z,103284.75
2019-02-22T11:43:30.176Z,103291.44
2019-02-22T11:48:34.367Z,103293.18
2019-02-22T11:53:38.190Z,103288.82
2019-02-22T12:04:15.891Z,103304.53
2019-02-22T12:09:19.649Z,103313.65
2019-02-22T12:14:27.066Z,103328.55
2019-02-22T12:19:31.311Z,103325.82
2019-02-22T12:24:35.104Z,103318.00
2019-02-22T12:29:38.750Z,103331.17
2019-02-22T12:34:42.695Z,103349.91
2019-02-22T12:39:45.760Z,103335.53
2019-02-22T12:44:49.863Z,103343.44
2019-02-22T12:49:53.610Z,103339.08
2019-02-22T12:55:00.977Z,103345.59
2019-02-22T13:00:06.943Z,103354.86
2019-02-22T13:05:13.936Z,103366.25
2019-02-22T13:10:17.632Z,103381.95
2019-02-22T13:15:20.854Z,103393.11
2019-02-22T13:20:24.520Z,103397.86
2019-02-22T13:25:28.296Z,103401.58
2019-02-22T13:30:32.061Z,103410.22
2019-02-22T13:35:35.922Z,103423.47
2019-02-22T13:40:40.212Z,103407.86
2019-02-22T13:45:43.950Z,103420.03
2019-02-22T13:50:48.058Z,103418.48
2019-02-22T13:55:51.861Z,103422.00
2019-02-22T14:00:55.476Z,103434.81
2019-02-22T14:05:59.435Z,103425.00
2019-02-22T14:11:24.276Z,103438.73
2019-02-22T14:16:28.129Z,103437.43
2019-02-22T14:21:32.078Z,103448.98
2019-02-22T14:26:36.372Z,103449.59
2019-02-22T14:36:56.863Z,103462.77
2019-02-22T14:42:00.314Z,103462.86
2019-02-22T14:47:04.625Z,103459.81
2019-02-22T14:52:08.410Z,103441.30
2019-02-22T14:57:13.214Z,103455.62
2019-02-22T15:02:17.014Z,103462.66
2019-02-22T15:07:19.789Z,103463.50
2019-02-22T15:12:22.480Z,103456.14
2019-02-22T15:17:28.578Z,103473.87
2019-02-22T15:22:37.539Z,103492.50
2019-02-22T15:27:48.519Z,103489.80
2019-02-22T15:33:05.658Z,103475.72
2019-02-22T15:38:28.869Z,103493.64
2019-02-22T15:43:39.247Z,103496.91
2019-02-22T15:48:42.572Z,103496.42
2019-02-22T15:53:45.351Z,103518.22
2019-02-22T15:59:05.024Z,103523.77
2019-02-22T16:04:52.632Z,103506.69
2019-02-22T16:09:56.298Z,103526.22
2019-02-22T16:14:59.129Z,103528.58
2019-02-22T16:20:08.578Z,103543.66
2019-02-22T16:25:19.501Z,103548.05
2019-02-22T16:30:25.915Z,103544.55
2019-02-22T16:35:30.134Z,103542.07
2019-02-22T16:40:32.914Z,103529.19
2019-02-22T16:45:35.625Z,103531.70
2019-02-22T16:50:38.504Z,103564.17
2019-02-22T16:55:41.227Z,103557.82
2019-02-22T17:00:43.927Z,103560.16
2019-02-22T17:05:48.580Z,103549.31
2019-02-22T17:10:54.645Z,103558.32
2019-02-22T17:16:09.043Z,103549.62
2019-02-22T17:21:11.886Z,103577.30
2019-02-22T17:26:15.711Z,103585.06
2019-02-22T17:31:18.538Z,103598.86
2019-02-22T17:36:26.763Z,103601.85
2019-02-22T17:41:25.852Z,103582.58
2019-02-22T17:46:28.758Z,103623.14
2019-02-22T17:51:40.889Z,103623.61
2019-02-22T17:56:54.675Z,103629.78
2019-02-22T18:02:10.729Z,103631.24
2019-02-22T18:07:18.430Z,103645.80
2019-02-22T18:12:27.655Z,103644.39
2019-02-22T18:17:37.879Z,103661.22
2019-02-22T18:22:41.435Z,103658.66
2019-02-22T18:27:47.483Z,103656.36
2019-02-22T18:32:50.292Z,103664.50
2019-02-22T18:37:53.013Z,103658.69
2019-02-22T18:43:07.886Z,103670.63
2019-02-22T18:48:11.629Z,103658.80
2019-02-22T18:53:24.070Z,103669.17
2019-02-22T18:58:32.017Z,103674.86
2019-02-22T19:03:38.292Z,103674.10
2019-02-22T19:08:54.599Z,103661.77
2019-02-22T19:14:10.612Z,103673.31
2019-02-22T19:19:14.553Z,103661.82
2019-02-22T19:24:17.508Z,103662.78
2019-02-22T19:29:20.220Z,103651.62
2019-02-22T19:34:22.946Z,103669.28
2019-02-22T19:39:25.729Z,103655.28
2019-02-22T19:44:28.448Z,103666.26
2019-02-22T19:49:31.526Z,103640.56
2019-02-22T19:54:34.327Z,103653.27
2019-02-22T19:59:37.053Z,103652.02
2019-02-22T20:04:39.770Z,103630.31
2019-02-22T20:09:46.044Z,103612.27
2019-02-22T20:14:57.717Z,103616.93
2019-02-22T20:20:00.605Z,103637.66
2019-02-22T20:25:04.540Z,103672.80
2019-02-22T20:30:14.657Z,103681.46
2019-02-22T20:35:22.078Z,103687.97
2019-02-22T20:40:24.787Z,103670.06
2019-02-22T20:45:27.493Z,103692.05
2019-02-22T20:50:30.595Z,103688.16
2019-02-22T20:55:33.297Z,103702.07
2019-02-22T21:00:35.996Z,103691.80
2019-02-22T21:05:38.680Z,103697.94
2019-02-22T21:10:41.387Z,103704.75
2019-02-22T21:15:44.320Z,103713.13
2019-02-22T21:20:47.101Z,103704.02
2019-02-22T21:25:49.838Z,103691.51
2019-02-22T21:30:52.531Z,103693.61
2019-02-22T21:35:55.247Z,103698.27
2019-02-22T21:40:57.943Z,103703.77
2019-02-22T21:46:00.650Z,103709.62
2019-02-22T21:51:03.343Z,103722.47
2019-02-22T21:56:06.062Z,103710.03
2019-02-22T22:01:08.736Z,103709.98
2019-02-22T22:06:11.412Z,103715.81
2019-02-22T22:11:14.209Z,103721.24
2019-02-22T22:16:16.912Z,103733.39
2019-02-22T22:21:19.620Z,103724.61
2019-02-22T22:26:22.357Z,103720.85
2019-02-22T22:31:25.055Z,103729.38
2019-02-22T22:36:27.724Z,103740.63
2019-02-22T22:41:30.517Z,103728.07
2019-02-22T22:46:36.787Z,103736.49
2019-02-22T22:51:37.859Z,103753.13
2019-02-22T22:56:40.560Z,103755.52
2019-02-22T23:01:43.254Z,103760.84
2019-02-22T23:06:45.962Z,103759.03
2019-02-22T23:11:48.634Z,103761.98
2019-02-22T23:16:51.441Z,103755.55
2019-02-22T23:21:54.320Z,103752.64
2019-02-22T23:26:57.024Z,103764.34
2019-02-22T23:31:59.724Z,103754.03
2019-02-22T23:37:02.428Z,103753.36
2019-02-22T23:42:05.117Z,103742.68
2019-02-22T23:47:19.311Z,103749.50
2019-02-22T23:52:22.446Z,103744.03
2019-02-22T23:57:25.140Z,103734.12
